Aérodrome :
LOGIN :

S'inscrire | Disclaimer

   EN    FR    IT 

 










Légende :    VFR   VFR Marginal   IFR   IFR Intensif   IFR Très Intensif
Visi : 
Plafond : 
>= 8 km
>= 3000ft
5 à 8 km
1000 à 3000 ft
1500m à 5 km
500 à 1000 ft
800 à 1500m
200 à 500 ft
< 800m
< 200 ft
Symboles :   Orages  Brouillard  Fortes neiges  Fortes précipitations  Vent > 20 kt
SIGMETs :   Divers  Orages  Givrage  Turbulence  Onde Orograph.  Cendres Volcan.






- Altitude de l'aérodrome : 453 ft
- Code IATA : SBK


LFRT - St Brieuc Armor

DERNIER METAR :
  • 071630Z AUTO 18007KT 130V220 9999 FEW044 OVC088 13/05 Q1016

METARs EXPIRÉS :
  • 071600Z AUTO 17008KT 120V220 9999 SCT044 OVC100 13/04 Q1016
  • 071530Z AUTO 16006KT 110V200 9999 OVC044 13/04 Q1016
  • 071500Z AUTO 15005KT 080V210 9999 SCT046 OVC110 14/04 Q1016
  • 071430Z AUTO 18006KT 120V240 9999 SCT047 OVC110 13/04 Q1017
  • 071400Z AUTO 17005KT 100V240 9999 SCT049 OVC120 13/03 Q1017

Prévision TAF périmée.



MET'MAP, la Météo Aéronautique d'un coup d'oeil ! - Copyright ORBIFLY Décembre 2007 - Disclaimer

ORBIFLY MET'MAP TEAM :

Programmation & Développement : Alexandra Zaïnal
Sur une idée originale de : Baudouin d'Aumeries
Assistance à la programmation : Marc-Olivier Méhu
Soutien technique & logistique : Manuel Goepfert

Contact : metmap@orbifly.com




SOURCES & CREDITS :

   NOAA